createdAt,value
2018-06-27T00:02:48.781Z,63.60
2018-06-27T00:06:14.606Z,63.15
2018-06-27T00:09:39.991Z,63.93
2018-06-27T00:13:04.937Z,63.04
2018-06-27T00:16:29.798Z,64.13
2018-06-27T00:19:54.553Z,63.39
2018-06-27T00:23:19.058Z,63.90
2018-06-27T00:26:43.859Z,64.22
2018-06-27T00:30:08.658Z,64.28
2018-06-27T00:33:33.328Z,64.49
2018-06-27T00:36:58.060Z,65.57
2018-06-27T00:40:23.763Z,64.51
2018-06-27T00:43:48.525Z,64.78
2018-06-27T00:47:13.194Z,64.90
2018-06-27T00:50:38.104Z,64.80
2018-06-27T00:54:06.899Z,64.98
2018-06-27T00:57:31.555Z,65.14
2018-06-27T01:00:56.251Z,65.41
2018-06-27T01:04:21.010Z,65.96
2018-06-27T01:07:45.849Z,65.63
2018-06-27T01:11:10.647Z,66.12
2018-06-27T01:14:35.387Z,66.72
2018-06-27T01:18:00.085Z,66.69
2018-06-27T01:21:24.838Z,66.72
2018-06-27T01:24:49.455Z,66.39
2018-06-27T01:28:14.243Z,67.17
2018-06-27T01:31:38.967Z,67.10
2018-06-27T01:35:03.644Z,67.39
2018-06-27T01:38:28.367Z,67.95
2018-06-27T01:41:53.136Z,67.18
2018-06-27T01:45:17.876Z,67.45
2018-06-27T01:48:42.631Z,67.91
2018-06-27T01:52:07.342Z,67.98
2018-06-27T01:55:32.166Z,67.36
2018-06-27T01:58:56.968Z,67.97
2018-06-27T02:02:21.855Z,68.61
2018-06-27T02:05:46.591Z,67.60
2018-06-27T02:09:11.775Z,68.16
2018-06-27T02:12:36.485Z,68.12
2018-06-27T02:16:01.279Z,68.18
2018-06-27T02:19:26.000Z,68.69
2018-06-27T02:22:50.757Z,68.70
2018-06-27T02:26:15.661Z,68.69
2018-06-27T02:29:40.461Z,68.67
2018-06-27T02:33:05.269Z,68.50
2018-06-27T02:36:29.961Z,69.03
2018-06-27T02:39:54.636Z,68.90
2018-06-27T02:43:19.668Z,69.31
2018-06-27T02:46:44.391Z,69.51
2018-06-27T02:50:09.090Z,69.32
2018-06-27T02:53:37.579Z,69.59
2018-06-27T02:57:02.442Z,70.18
2018-06-27T03:00:27.264Z,69.88
2018-06-27T03:03:52.112Z,69.76
2018-06-27T03:07:16.810Z,68.73
2018-06-27T03:10:41.663Z,69.90
2018-06-27T03:14:06.665Z,69.89
2018-06-27T03:17:32.686Z,69.42
2018-06-27T03:20:57.593Z,70.78
2018-06-27T03:24:22.039Z,70.76
2018-06-27T03:27:47.799Z,71.06
2018-06-27T03:31:12.701Z,70.31
2018-06-27T03:34:37.605Z,71.07
2018-06-27T03:38:02.145Z,71.35
2018-06-27T03:41:27.162Z,71.30
2018-06-27T03:44:52.213Z,71.97
2018-06-27T03:48:17.229Z,71.65
2018-06-27T03:51:42.231Z,72.89
2018-06-27T03:55:07.112Z,72.84
2018-06-27T03:58:31.967Z,72.78
2018-06-27T04:01:56.897Z,72.32
2018-06-27T04:05:21.850Z,72.70
2018-06-27T04:08:47.973Z,73.49
2018-06-27T04:12:12.937Z,72.49
2018-06-27T04:15:38.888Z,73.10
2018-06-27T04:19:03.741Z,73.13
2018-06-27T04:22:33.169Z,72.76
2018-06-27T04:25:58.036Z,72.44
2018-06-27T04:29:22.773Z,72.55
2018-06-27T04:32:47.512Z,71.70
2018-06-27T04:36:12.320Z,72.50
2018-06-27T04:39:37.927Z,71.79
2018-06-27T04:43:02.411Z,71.76
2018-06-27T04:46:27.354Z,71.05
2018-06-27T04:49:53.500Z,72.08
2018-06-27T04:53:18.327Z,72.17
2018-06-27T04:56:43.201Z,71.81
2018-06-27T05:00:08.159Z,71.55
2018-06-27T05:03:32.911Z,70.74
2018-06-27T05:07:00.531Z,70.52
2018-06-27T05:10:25.509Z,70.92
2018-06-27T05:13:50.589Z,70.55
2018-06-27T05:17:15.339Z,71.08
2018-06-27T05:20:40.136Z,69.97
2018-06-27T05:24:06.805Z,70.12
2018-06-27T05:27:31.963Z,69.77
2018-06-27T05:30:59.716Z,67.88
2018-06-27T05:34:24.787Z,69.31
2018-06-27T05:37:49.801Z,69.46
2018-06-27T05:41:14.767Z,68.50
2018-06-27T05:44:39.912Z,70.23
2018-06-27T05:48:04.944Z,69.25
2018-06-27T05:51:30.253Z,67.84
2018-06-27T05:55:00.151Z,68.46
2018-06-27T05:58:29.946Z,69.79
2018-06-27T06:01:57.983Z,68.30
2018-06-27T06:05:24.060Z,68.52
2018-06-27T06:08:49.191Z,68.34
2018-06-27T06:12:14.343Z,67.06
2018-06-27T06:15:39.566Z,66.93
2018-06-27T06:19:04.641Z,67.67
2018-06-27T06:22:30.904Z,68.62
2018-06-27T06:25:55.477Z,68.65
2018-06-27T06:29:20.445Z,66.99
2018-06-27T06:32:45.594Z,66.60
2018-06-27T06:36:10.607Z,66.21
2018-06-27T06:39:35.404Z,66.37
2018-06-27T06:43:00.057Z,66.18
2018-06-27T06:46:25.044Z,66.42
2018-06-27T06:49:50.337Z,65.66
2018-06-27T06:53:16.441Z,65.42
2018-06-27T06:56:41.449Z,64.03
2018-06-27T07:00:06.762Z,64.30
2018-06-27T07:03:31.673Z,65.31
2018-06-27T07:06:57.716Z,63.26
2018-06-27T07:10:22.805Z,62.61
2018-06-27T07:13:47.753Z,62.49
2018-06-27T07:17:12.379Z,61.40
2018-06-27T07:20:37.321Z,61.76
2018-06-27T07:24:02.506Z,61.10
2018-06-27T07:27:27.562Z,60.97
2018-06-27T07:30:52.572Z,61.58
2018-06-27T07:34:17.767Z,60.72
2018-06-27T07:37:42.700Z,59.30
2018-06-27T07:41:07.772Z,58.20
2018-06-27T07:44:32.848Z,57.70
2018-06-27T07:47:57.739Z,56.92
2018-06-27T07:51:22.318Z,57.00
2018-06-27T07:54:47.318Z,56.25
2018-06-27T07:58:13.662Z,55.89
2018-06-27T08:01:38.676Z,55.25
2018-06-27T08:05:03.663Z,54.10
2018-06-27T08:08:28.782Z,53.95
2018-06-27T08:11:53.579Z,52.67
2018-06-27T08:15:19.542Z,51.95
2018-06-27T08:18:45.061Z,50.95
2018-06-27T08:22:10.215Z,50.77
2018-06-27T08:25:35.320Z,48.44
2018-06-27T08:29:00.304Z,50.41
2018-06-27T08:32:25.427Z,50.49
2018-06-27T08:35:50.194Z,49.76
2018-06-27T08:39:15.282Z,48.29
2018-06-27T08:42:39.860Z,47.70
2018-06-27T08:46:04.989Z,46.48
2018-06-27T08:49:29.970Z,47.57
2018-06-27T08:52:54.988Z,46.75
2018-06-27T08:56:19.972Z,46.52
2018-06-27T08:59:45.198Z,46.23
2018-06-27T09:03:10.017Z,46.62
2018-06-27T09:06:34.841Z,46.27
2018-06-27T09:09:59.973Z,45.69
2018-06-27T09:13:24.903Z,45.97
2018-06-27T09:16:49.971Z,46.20
2018-06-27T09:20:14.888Z,45.84
2018-06-27T09:23:39.882Z,45.83
2018-06-27T09:27:04.734Z,43.98
2018-06-27T09:30:30.539Z,44.74
2018-06-27T09:33:55.542Z,44.79
2018-06-27T09:37:20.390Z,43.01
2018-06-27T09:40:45.306Z,42.04
2018-06-27T09:44:10.310Z,42.12
2018-06-27T09:47:35.141Z,41.37
2018-06-27T09:50:59.888Z,41.08
2018-06-27T09:54:25.706Z,40.78
2018-06-27T09:57:50.187Z,40.35
2018-06-27T10:01:15.016Z,40.62
2018-06-27T10:04:40.050Z,39.97
2018-06-27T10:08:05.941Z,38.76
2018-06-27T10:11:31.527Z,37.46
2018-06-27T10:14:56.499Z,37.38
2018-06-27T10:18:21.871Z,37.31
2018-06-27T10:21:47.225Z,36.84
2018-06-27T10:25:12.336Z,35.20
2018-06-27T10:28:38.558Z,34.98
2018-06-27T10:32:03.457Z,35.21
2018-06-27T10:35:29.535Z,34.93
2018-06-27T10:38:54.427Z,34.06
2018-06-27T10:42:19.291Z,31.86
2018-06-27T10:45:43.842Z,32.18
2018-06-27T10:49:08.568Z,32.10
2018-06-27T10:52:33.516Z,33.45
2018-06-27T10:55:58.396Z,32.60
2018-06-27T10:59:23.058Z,31.97
2018-06-27T11:02:47.900Z,32.41
2018-06-27T11:06:12.815Z,31.61
2018-06-27T11:09:37.437Z,31.70
2018-06-27T11:13:04.504Z,31.92
2018-06-27T11:16:30.111Z,31.11
2018-06-27T11:19:55.980Z,30.99
2018-06-27T11:23:23.894Z,32.12
2018-06-27T11:26:49.344Z,32.16
2018-06-27T11:30:16.578Z,31.30
2018-06-27T11:33:42.941Z,31.28
2018-06-27T11:37:07.811Z,32.06
2018-06-27T11:40:33.430Z,31.14
2018-06-27T11:43:59.970Z,31.56
2018-06-27T11:47:24.901Z,31.56
2018-06-27T11:50:50.712Z,31.63
2018-06-27T11:54:16.255Z,30.34
2018-06-27T11:57:43.887Z,30.06
2018-06-27T12:01:08.683Z,31.08
2018-06-27T12:04:33.202Z,30.74
2018-06-27T12:07:58.640Z,28.45
2018-06-27T12:11:24.112Z,28.88
2018-06-27T12:14:48.867Z,27.88
2018-06-27T12:18:13.657Z,26.12
2018-06-27T12:21:39.436Z,26.65
2018-06-27T12:25:04.195Z,27.19
2018-06-27T12:28:29.524Z,27.01
2018-06-27T12:31:54.355Z,27.36
2018-06-27T12:35:20.192Z,26.17
2018-06-27T12:38:46.961Z,26.13
2018-06-27T12:42:11.884Z,26.42
2018-06-27T12:45:36.749Z,27.25
2018-06-27T12:49:01.656Z,26.61
2018-06-27T12:52:26.539Z,26.83
2018-06-27T12:55:51.508Z,26.68
2018-06-27T12:59:16.565Z,26.67
2018-06-27T13:02:41.665Z,26.53
2018-06-27T13:06:11.769Z,25.09
2018-06-27T13:09:36.599Z,26.10
2018-06-27T13:13:01.526Z,25.50
2018-06-27T13:16:26.606Z,25.64
2018-06-27T13:19:51.440Z,26.15
2018-06-27T13:23:16.391Z,26.50
2018-06-27T13:26:41.427Z,26.23
2018-06-27T13:30:06.847Z,27.04
2018-06-27T13:33:32.057Z,27.56
2018-06-27T13:36:56.958Z,27.11
2018-06-27T13:40:22.187Z,26.69
2018-06-27T13:43:47.230Z,27.03
2018-06-27T13:47:13.110Z,28.49
2018-06-27T13:50:37.985Z,27.41
2018-06-27T13:54:02.962Z,27.06
2018-06-27T13:57:28.948Z,27.63
2018-06-27T14:00:53.724Z,27.37
2018-06-27T14:04:18.421Z,27.94
2018-06-27T14:07:43.236Z,28.06
2018-06-27T14:11:08.035Z,29.02
2018-06-27T14:14:32.899Z,29.39
2018-06-27T14:17:58.054Z,29.00
2018-06-27T14:21:22.938Z,29.38
2018-06-27T14:24:47.863Z,28.05
2018-06-27T14:28:13.394Z,28.30
2018-06-27T14:36:14.773Z,28.78
2018-06-27T14:39:44.640Z,29.15
2018-06-27T14:43:10.562Z,28.00
2018-06-27T14:46:36.119Z,27.10
2018-06-27T14:50:00.516Z,26.81
2018-06-27T14:53:24.886Z,26.33
2018-06-27T14:56:49.664Z,25.88
2018-06-27T15:00:14.562Z,25.93
2018-06-27T15:03:39.371Z,25.65
2018-06-27T15:07:04.494Z,25.00
2018-06-27T15:10:29.402Z,26.71
2018-06-27T15:13:53.872Z,27.45
2018-06-27T15:17:18.778Z,28.03
2018-06-27T15:20:43.885Z,28.71
2018-06-27T15:24:08.714Z,28.03
2018-06-27T15:27:33.756Z,27.45
2018-06-27T15:30:58.700Z,28.90
2018-06-27T15:34:23.614Z,29.24
2018-06-27T15:37:48.503Z,30.71
2018-06-27T15:41:14.341Z,29.79
2018-06-27T15:44:39.208Z,30.45
2018-06-27T15:48:04.154Z,30.41
2018-06-27T15:51:29.046Z,32.02
2018-06-27T15:54:53.852Z,31.24
2018-06-27T15:58:18.599Z,31.87
2018-06-27T16:01:43.487Z,31.88
2018-06-27T16:05:08.075Z,33.16
2018-06-27T16:08:33.263Z,31.38
2018-06-27T16:11:57.968Z,28.35
2018-06-27T16:15:22.776Z,28.78
2018-06-27T16:18:47.466Z,30.14
2018-06-27T16:22:11.944Z,30.38
2018-06-27T16:25:36.760Z,30.26
2018-06-27T16:29:01.556Z,31.40
2018-06-27T16:32:26.314Z,31.99
2018-06-27T16:35:51.439Z,31.88
2018-06-27T16:39:16.308Z,32.80
2018-06-27T16:42:41.283Z,33.59
2018-06-27T16:46:06.340Z,34.37
2018-06-27T16:49:31.195Z,33.99
2018-06-27T16:52:56.231Z,34.44
2018-06-27T16:56:21.145Z,34.66
2018-06-27T16:59:46.276Z,34.48
2018-06-27T17:03:11.113Z,35.25
2018-06-27T17:06:37.315Z,34.24
2018-06-27T17:10:02.057Z,34.76
2018-06-27T17:13:26.920Z,33.08
2018-06-27T17:16:51.477Z,33.70
2018-06-27T17:20:17.096Z,32.92
2018-06-27T17:23:44.319Z,32.74
2018-06-27T17:27:09.167Z,33.99
2018-06-27T17:30:34.806Z,35.08
2018-06-27T17:33:59.742Z,36.27
2018-06-27T17:37:24.967Z,35.30
2018-06-27T17:40:49.755Z,34.44
2018-06-27T17:44:14.752Z,34.02
2018-06-27T17:47:39.626Z,33.30
2018-06-27T17:51:04.674Z,33.06
2018-06-27T17:54:30.200Z,32.48
2018-06-27T17:57:55.027Z,31.16
2018-06-27T18:01:21.223Z,31.41
2018-06-27T18:04:46.210Z,31.67
2018-06-27T18:08:10.971Z,32.64
2018-06-27T18:11:36.105Z,31.10
2018-06-27T18:15:00.846Z,30.97
2018-06-27T18:18:25.711Z,32.65
2018-06-27T18:21:50.559Z,31.55
2018-06-27T18:25:15.762Z,31.88
2018-06-27T18:28:43.504Z,31.53
2018-06-27T18:32:08.444Z,32.08
2018-06-27T18:35:33.499Z,32.16
2018-06-27T18:38:58.971Z,33.25
2018-06-27T18:42:24.641Z,34.92
2018-06-27T18:45:50.643Z,34.92
2018-06-27T18:49:15.407Z,35.51
2018-06-27T18:52:40.808Z,36.18
2018-06-27T18:56:05.357Z,36.07
2018-06-27T18:59:31.381Z,36.93
2018-06-27T19:02:56.290Z,36.22
2018-06-27T19:06:21.348Z,37.55
2018-06-27T19:09:46.577Z,37.71
2018-06-27T19:13:11.733Z,36.91
2018-06-27T19:16:41.044Z,37.87
2018-06-27T19:20:07.420Z,38.01
2018-06-27T19:23:32.085Z,37.07
2018-06-27T19:26:56.899Z,36.86
2018-06-27T19:30:21.350Z,36.97
2018-06-27T19:33:46.147Z,36.87
2018-06-27T19:37:10.813Z,36.87
2018-06-27T19:40:36.114Z,37.10
2018-06-27T19:44:01.026Z,37.00
2018-06-27T19:47:26.751Z,37.18
2018-06-27T19:50:51.557Z,35.68
2018-06-27T19:54:16.300Z,36.94
2018-06-27T19:57:41.057Z,36.89
2018-06-27T20:01:06.760Z,36.02
2018-06-27T20:04:31.176Z,36.26
2018-06-27T20:07:56.153Z,36.54
2018-06-27T20:11:20.665Z,37.49
2018-06-27T20:14:45.521Z,37.53
2018-06-27T20:18:10.152Z,37.99
2018-06-27T20:21:35.027Z,38.41
2018-06-27T21:47:59.018Z,43.85
2018-06-27T21:51:23.745Z,44.18
2018-06-27T21:54:48.418Z,43.59
2018-06-27T21:58:14.398Z,43.66
2018-06-27T22:01:39.117Z,44.10
2018-06-27T22:05:03.975Z,44.74
2018-06-27T22:08:28.342Z,44.07
2018-06-27T22:11:53.194Z,44.53
2018-06-27T22:15:18.105Z,45.12
2018-06-27T22:18:43.194Z,45.01
2018-06-27T22:22:07.978Z,44.97
2018-06-27T22:25:32.803Z,45.57
2018-06-27T22:28:57.590Z,45.60
2018-06-27T22:32:22.375Z,45.95
2018-06-27T22:35:47.155Z,45.86
2018-06-27T22:39:12.341Z,46.28
2018-06-27T22:42:37.069Z,45.75
2018-06-27T22:46:01.846Z,45.95
2018-06-27T22:49:26.581Z,46.44
2018-06-27T22:52:51.462Z,47.21
2018-06-27T22:56:16.160Z,46.91
2018-06-27T22:59:40.946Z,46.49
2018-06-27T23:03:05.363Z,46.82
2018-06-27T23:06:30.143Z,47.72
2018-06-27T23:09:54.838Z,47.75
2018-06-27T23:13:19.517Z,47.99
2018-06-27T23:16:44.144Z,47.25
2018-06-27T23:20:08.991Z,47.63
2018-06-27T23:23:33.756Z,48.33
2018-06-27T23:26:58.509Z,48.07
2018-06-27T23:30:22.475Z,48.01
2018-06-27T23:33:47.244Z,47.46
2018-06-27T23:37:11.241Z,48.08
2018-06-27T23:40:35.145Z,47.64
2018-06-27T23:43:59.174Z,49.01
2018-06-27T23:47:23.151Z,48.92
2018-06-27T23:50:47.128Z,48.73
2018-06-27T23:54:11.782Z,48.86
2018-06-27T23:57:35.354Z,48.60
